createdAt,value
2018-12-17T00:00:19.164Z,60.03
2018-12-17T00:02:54.223Z,57.20
2018-12-17T00:05:22.442Z,55.60
2018-12-17T00:07:51.638Z,56.10
2018-12-17T00:10:21.880Z,54.93
2018-12-17T00:12:52.084Z,59.97
2018-12-17T00:15:20.324Z,59.83
2018-12-17T00:17:48.604Z,53.13
2018-12-17T00:20:16.725Z,50.67
2018-12-17T00:22:45.959Z,51.67
2018-12-17T00:25:14.492Z,56.20
2018-12-17T00:27:42.745Z,52.67
2018-12-17T00:30:10.982Z,58.60
2018-12-17T00:32:39.204Z,51.27
2018-12-17T00:35:07.320Z,55.67
2018-12-17T00:37:38.468Z,60.25
2018-12-17T00:40:06.761Z,56.57
2018-12-17T00:42:35.874Z,56.20
2018-12-17T00:45:06.658Z,57.27
2018-12-17T00:47:34.881Z,59.70
2018-12-17T00:50:03.058Z,61.13
2018-12-17T00:52:35.118Z,53.80
2018-12-17T00:55:06.757Z,54.37
2018-12-17T00:57:35.848Z,60.63
2018-12-17T01:00:05.316Z,53.37
2018-12-17T01:02:33.892Z,56.30
2018-12-17T01:05:01.971Z,56.63
2018-12-17T01:07:35.487Z,51.53
2018-12-17T01:10:04.677Z,51.33
2018-12-17T01:12:39.851Z,49.77
2018-12-17T01:15:10.050Z,52.20
2018-12-17T01:17:38.316Z,55.77
2018-12-17T01:20:06.919Z,46.50
2018-12-17T01:22:35.490Z,49.43
2018-12-17T01:25:15.584Z,55.63
2018-12-17T01:27:44.793Z,50.50
2018-12-17T01:30:12.926Z,47.43
2018-12-17T01:32:43.155Z,49.83
2018-12-17T01:35:18.428Z,51.53
2018-12-17T01:37:48.613Z,50.17
2018-12-17T01:40:35.489Z,51.17
2018-12-17T01:43:03.734Z,48.10
2018-12-17T01:45:31.993Z,45.40
2018-12-17T01:48:15.501Z,53.00
2018-12-17T01:50:43.664Z,47.03
2018-12-17T01:53:11.861Z,47.03
2018-12-17T01:55:40.127Z,55.33
2018-12-17T01:58:09.593Z,55.50
2018-12-17T02:00:37.807Z,68.57
2018-12-17T02:03:07.962Z,76.37
2018-12-17T02:05:43.068Z,70.03
2018-12-17T02:08:19.197Z,66.70
2018-12-17T02:10:51.418Z,50.70
2018-12-17T02:13:19.708Z,59.10
2018-12-17T02:15:47.988Z,60.87
2018-12-17T02:18:17.197Z,53.07
2018-12-17T02:20:46.450Z,55.30
2018-12-17T02:23:14.859Z,55.40
2018-12-17T02:25:43.090Z,47.80
2018-12-17T02:28:12.269Z,51.27
2018-12-17T02:30:41.494Z,55.17
2018-12-17T02:33:09.676Z,52.70
2018-12-17T02:35:37.922Z,54.33
2018-12-17T02:38:08.166Z,55.93
2018-12-17T02:40:37.722Z,50.17
2018-12-17T02:43:05.975Z,52.73
2018-12-17T02:45:34.222Z,52.50
2018-12-17T02:48:05.455Z,49.10
2018-12-17T02:50:33.628Z,60.53
2018-12-17T02:53:01.793Z,47.47
2018-12-17T02:55:29.986Z,49.27
2018-12-17T02:57:58.153Z,55.17
2018-12-17T03:00:27.390Z,62.03
2018-12-17T03:03:01.873Z,58.00
2018-12-17T03:05:34.229Z,57.20
2018-12-17T03:08:02.465Z,60.83
2018-12-17T03:10:32.823Z,59.43
2018-12-17T03:13:01.030Z,61.70
2018-12-17T03:15:36.119Z,53.97
2018-12-17T03:18:09.426Z,47.80
2018-12-17T03:20:39.220Z,53.17
2018-12-17T03:23:08.059Z,52.77
2018-12-17T03:25:36.193Z,53.33
2018-12-17T03:28:11.584Z,50.27
2018-12-17T03:30:42.795Z,60.17
2018-12-17T03:33:12.091Z,50.27
2018-12-17T03:35:40.670Z,48.97
2018-12-17T03:38:08.924Z,52.03
2018-12-17T03:40:37.625Z,55.47
2018-12-17T03:43:06.844Z,57.07
2018-12-17T03:45:35.020Z,50.30
2018-12-17T03:48:05.231Z,55.67
2018-12-17T03:50:35.863Z,51.63
2018-12-17T03:53:04.083Z,51.93
2018-12-17T03:55:33.270Z,55.33
2018-12-17T03:58:03.501Z,50.50
2018-12-17T04:00:31.726Z,47.40
2018-12-17T04:03:02.409Z,53.20
2018-12-17T04:05:36.426Z,45.50
2018-12-17T04:08:05.871Z,45.83
2018-12-17T04:10:34.462Z,45.37
2018-12-17T04:13:02.895Z,46.27
2018-12-17T04:15:31.115Z,53.70
2018-12-17T04:17:59.378Z,48.00
2018-12-17T04:20:27.553Z,50.97
2018-12-17T04:22:56.857Z,45.83
2018-12-17T04:25:25.071Z,44.95
2018-12-17T04:27:53.219Z,48.83
2018-12-17T04:30:22.415Z,53.00
2018-12-17T04:32:57.714Z,49.43
2018-12-17T04:35:33.759Z,46.73
2018-12-17T04:38:08.791Z,45.70
2018-12-17T04:40:37.011Z,53.77
2018-12-17T04:43:07.225Z,54.07
2018-12-17T04:45:42.447Z,71.67
2018-12-17T04:48:10.716Z,59.10
2018-12-17T04:50:40.157Z,60.53
2018-12-17T04:53:10.338Z,70.37
2018-12-17T04:55:39.067Z,63.17
2018-12-17T04:58:08.258Z,62.93
2018-12-17T05:00:36.447Z,78.00
2018-12-17T05:03:04.896Z,72.97
2018-12-17T05:05:40.081Z,91.20
2018-12-17T05:08:15.128Z,83.25
2018-12-17T05:10:43.299Z,80.77
2018-12-17T05:13:11.523Z,71.47
2018-12-17T05:15:41.781Z,66.63
2018-12-17T05:18:10.966Z,73.93
2018-12-17T05:20:43.695Z,82.95
2018-12-17T05:23:18.813Z,84.43
2018-12-17T05:25:51.086Z,93.25
2018-12-17T05:28:19.305Z,106.43
2018-12-17T05:30:47.512Z,105.43
2018-12-17T05:33:15.666Z,96.13
2018-12-17T05:35:44.977Z,119.20
2018-12-17T05:38:13.683Z,106.17
2018-12-17T05:40:42.334Z,101.43
2018-12-17T05:43:11.635Z,96.43
2018-12-17T05:46:45.465Z,120.80
2018-12-17T05:49:36.016Z,108.93
2018-12-17T05:52:12.576Z,114.37
2018-12-17T05:54:42.831Z,120.47
2018-12-17T05:57:11.173Z,108.23
2018-12-17T05:59:40.974Z,113.88
2018-12-17T06:02:10.171Z,102.60
2018-12-17T06:04:45.645Z,104.43
2018-12-17T06:07:16.357Z,110.00
2018-12-17T06:09:44.648Z,114.63
2018-12-17T06:12:38.825Z,116.37
2018-12-17T06:15:13.014Z,101.30
2018-12-17T06:17:41.218Z,99.97
2018-12-17T06:20:12.172Z,109.40
2018-12-17T06:22:41.218Z,126.50
2018-12-17T06:25:10.151Z,122.93
2018-12-17T06:27:38.679Z,106.57
2018-12-17T06:30:10.901Z,112.23
2018-12-17T06:32:39.071Z,149.33
2018-12-17T06:35:10.355Z,108.33
2018-12-17T06:37:44.353Z,101.97
2018-12-17T06:40:18.351Z,110.97
2018-12-17T06:42:47.562Z,111.62
2018-12-17T06:45:17.342Z,148.70
2018-12-17T06:47:49.836Z,174.77
2018-12-17T06:50:18.001Z,116.13
2018-12-17T06:52:46.225Z,120.30
2018-12-17T06:55:18.246Z,127.40
2018-12-17T06:57:48.527Z,115.83
2018-12-17T07:00:16.748Z,123.33
2018-12-17T07:02:45.962Z,113.03
2018-12-17T07:05:14.114Z,123.93
2018-12-17T07:07:43.344Z,118.63
2018-12-17T07:10:15.123Z,121.43
2018-12-17T07:12:43.288Z,185.37
2018-12-17T07:15:13.087Z,118.87
2018-12-17T07:17:44.485Z,182.67
2018-12-17T07:20:12.662Z,191.67
2018-12-17T07:22:42.895Z,145.90
2018-12-17T07:25:11.993Z,143.30
2018-12-17T07:27:40.209Z,164.53
2018-12-17T07:30:10.695Z,181.17
2018-12-17T07:32:39.890Z,208.27
2018-12-17T07:35:12.167Z,168.70
2018-12-17T07:37:40.340Z,277.10
2018-12-17T07:40:09.554Z,182.97
2018-12-17T07:42:38.777Z,149.57
2018-12-17T07:45:13.206Z,152.87
2018-12-17T07:47:43.166Z,179.13
2018-12-17T07:50:12.205Z,145.50
2018-12-17T07:52:40.437Z,165.77
2018-12-17T07:55:12.463Z,163.77
2018-12-17T07:57:42.661Z,157.70
2018-12-17T08:00:20.177Z,164.07
2018-12-17T08:02:48.452Z,151.50
2018-12-17T08:05:16.704Z,126.90
2018-12-17T08:07:44.979Z,130.40
2018-12-17T08:10:14.189Z,140.47
2018-12-17T08:12:44.258Z,151.13
2018-12-17T08:15:13.460Z,141.67
2018-12-17T08:17:42.397Z,105.00
2018-12-17T08:20:11.083Z,101.93
2018-12-17T08:22:40.326Z,116.03
2018-12-17T08:25:12.638Z,112.70
2018-12-17T08:27:40.882Z,100.63
2018-12-17T08:30:09.034Z,102.53
2018-12-17T08:32:37.260Z,94.23
2018-12-17T08:35:05.834Z,89.03
2018-12-17T08:37:34.334Z,93.73
2018-12-17T08:40:02.577Z,108.63
2018-12-17T08:42:32.825Z,98.83
2018-12-17T08:45:01.071Z,85.10
2018-12-17T08:47:37.314Z,82.60
2018-12-17T08:50:06.524Z,92.90
2018-12-17T08:52:34.695Z,88.10
2018-12-17T08:58:27.368Z,98.20
2018-12-17T09:00:55.588Z,92.67
2018-12-17T09:03:23.800Z,81.33
2018-12-17T09:05:51.992Z,81.00
2018-12-17T09:08:25.982Z,87.07
2018-12-17T09:10:59.570Z,74.20
2018-12-17T09:13:33.790Z,83.37
2018-12-17T09:16:11.364Z,79.00
2018-12-17T09:18:43.361Z,73.00
2018-12-17T09:21:14.545Z,69.90
2018-12-17T09:23:42.745Z,71.23
2018-12-17T09:26:11.372Z,65.27
2018-12-17T09:28:39.532Z,64.33
2018-12-17T09:31:07.728Z,65.20
2018-12-17T09:33:35.890Z,68.43
2018-12-17T09:36:04.326Z,66.37
2018-12-17T09:38:32.486Z,58.53
2018-12-17T09:41:00.732Z,54.53
2018-12-17T09:43:29.913Z,54.90
2018-12-17T09:45:58.125Z,54.87
2018-12-17T09:48:35.783Z,54.33
2018-12-17T09:51:03.998Z,53.43
2018-12-17T09:53:33.189Z,56.20
2018-12-17T09:56:01.466Z,46.43
2018-12-17T09:58:31.635Z,48.07
2018-12-17T10:01:00.844Z,50.87
2018-12-17T10:03:30.085Z,51.27
2018-12-17T10:05:58.320Z,50.57
2018-12-17T10:08:26.505Z,50.23
2018-12-17T10:10:55.036Z,48.70
2018-12-17T10:13:29.575Z,50.60
2018-12-17T10:15:57.773Z,46.13
2018-12-17T10:18:28.033Z,49.80
2018-12-17T10:20:59.235Z,47.23
2018-12-17T10:23:29.728Z,46.90
2018-12-17T10:25:57.946Z,49.40
2018-12-17T10:28:27.277Z,46.53
2018-12-17T10:30:57.041Z,45.37
2018-12-17T10:33:29.360Z,44.35
2018-12-17T10:35:57.577Z,46.60
2018-12-17T10:38:28.856Z,43.33
2018-12-17T10:40:56.989Z,42.87
2018-12-17T10:43:26.215Z,42.40
2018-12-17T10:45:55.472Z,42.07
2018-12-17T10:48:25.630Z,41.63
2018-12-17T10:50:55.855Z,46.37
2018-12-17T10:53:26.074Z,41.73
2018-12-17T10:55:55.293Z,38.10
2018-12-17T10:58:24.509Z,36.80
2018-12-17T11:01:10.543Z,36.23
2018-12-17T11:04:02.156Z,39.00
2018-12-17T11:06:31.382Z,35.13
2018-12-17T11:08:59.551Z,36.00
2018-12-17T11:11:27.802Z,39.67
2018-12-17T11:13:57.959Z,36.20
2018-12-17T11:16:30.298Z,39.03
2018-12-17T11:18:58.538Z,34.03
2018-12-17T11:21:27.672Z,33.33
2018-12-17T11:23:55.878Z,33.27
2018-12-17T11:26:24.041Z,32.10
2018-12-17T11:28:53.227Z,32.40
2018-12-17T11:31:22.100Z,33.50
2018-12-17T11:33:50.294Z,30.50
2018-12-17T11:36:18.481Z,31.77
2018-12-17T11:38:50.961Z,29.03
2018-12-17T11:41:19.165Z,29.03
2018-12-17T11:43:48.424Z,26.27
2018-12-17T11:46:16.580Z,25.53
2018-12-17T11:48:45.163Z,27.63
2018-12-17T11:51:15.412Z,26.20
2018-12-17T11:53:43.560Z,24.27
2018-12-17T11:56:12.434Z,24.37
2018-12-17T11:58:40.639Z,22.73
2018-12-17T12:01:10.490Z,22.87
2018-12-17T12:03:43.169Z,22.97
2018-12-17T12:06:14.311Z,23.87
2018-12-17T12:08:39.612Z,23.40
2018-12-17T12:11:08.752Z,22.93
2018-12-17T12:13:38.402Z,23.63
2018-12-17T12:16:06.563Z,21.93
2018-12-17T12:18:35.748Z,23.63
2018-12-17T12:21:44.595Z,22.57
2018-12-17T12:24:24.450Z,22.07
2018-12-17T12:26:52.746Z,23.03
2018-12-17T12:29:20.983Z,21.67
2018-12-17T12:31:50.168Z,21.93
2018-12-17T12:34:18.354Z,22.30
2018-12-17T12:36:47.578Z,20.87
2018-12-17T12:39:15.854Z,20.60
2018-12-17T12:41:45.451Z,20.67
2018-12-17T12:44:14.088Z,18.67
2018-12-17T12:46:43.344Z,21.43
2018-12-17T12:49:12.492Z,18.47
2018-12-17T12:51:40.686Z,19.13
2018-12-17T12:54:13.131Z,17.23
2018-12-17T12:56:56.771Z,21.15
2018-12-17T12:59:30.811Z,20.93
2018-12-17T13:02:05.196Z,22.50
2018-12-17T13:04:34.809Z,20.17
2018-12-17T13:07:04.456Z,15.30
2018-12-17T13:09:32.924Z,17.37
2018-12-17T13:12:01.514Z,14.37
2018-12-17T13:14:30.819Z,15.03
2018-12-17T13:16:58.988Z,20.63
2018-12-17T13:19:28.454Z,21.48
2018-12-17T13:22:03.490Z,19.03
2018-12-17T13:24:34.005Z,16.17
2018-12-17T13:27:02.408Z,17.77
2018-12-17T13:29:30.978Z,16.90
2018-12-17T13:32:00.513Z,18.73
2018-12-17T13:34:34.721Z,15.73
2018-12-17T13:37:04.633Z,18.47
2018-12-17T13:39:33.088Z,17.77
2018-12-17T13:42:01.690Z,20.77
2018-12-17T13:44:30.503Z,605.23
2018-12-17T13:46:58.825Z,634.00
2018-12-17T13:49:28.347Z,531.07
2018-12-17T13:52:16.111Z,378.53
2018-12-17T13:54:44.665Z,24.17
2018-12-17T13:57:12.851Z,16.37
2018-12-17T13:59:42.055Z,18.27
2018-12-17T14:02:23.036Z,19.07
2018-12-17T14:04:51.196Z,16.87
2018-12-17T14:07:22.485Z,22.53
2018-12-17T14:10:07.395Z,18.23
2018-12-17T14:12:35.583Z,16.40
2018-12-17T14:15:04.863Z,22.93
2018-12-17T14:17:38.988Z,18.87
2018-12-17T14:20:26.719Z,16.33
2018-12-17T14:23:01.966Z,17.93
2018-12-17T14:25:30.441Z,17.90
2018-12-17T14:28:04.660Z,17.53
2018-12-17T14:30:32.833Z,18.20
2018-12-17T14:33:01.075Z,19.70
2018-12-17T14:35:33.235Z,23.02
2018-12-17T14:38:04.206Z,17.55
2018-12-17T14:40:33.663Z,21.27
2018-12-17T14:43:01.930Z,16.07
2018-12-17T14:45:31.098Z,18.70
2018-12-17T14:47:59.280Z,19.20
2018-12-17T14:50:27.718Z,19.13
2018-12-17T14:53:02.018Z,16.17
2018-12-17T14:55:30.309Z,17.82
2018-12-17T14:57:59.610Z,16.70
2018-12-17T15:00:28.906Z,17.03
2018-12-17T15:03:03.058Z,19.85
2018-12-17T15:05:37.570Z,19.52
2018-12-17T15:08:05.787Z,21.77
2018-12-17T15:10:39.099Z,19.70
2018-12-17T15:13:13.259Z,17.97
2018-12-17T15:15:41.466Z,18.17
2018-12-17T15:18:09.831Z,19.57
2018-12-17T15:20:40.924Z,22.33
2018-12-17T15:23:10.184Z,19.53
2018-12-17T15:25:38.426Z,19.23
2018-12-17T15:28:12.662Z,17.93
2018-12-17T15:30:42.969Z,20.20
2018-12-17T15:33:14.948Z,17.63
2018-12-17T15:35:45.180Z,19.82
2018-12-17T15:38:14.428Z,20.03
2018-12-17T15:40:42.666Z,24.23
2018-12-17T15:43:11.198Z,22.77
2018-12-17T15:45:47.613Z,20.63
2018-12-17T15:48:55.758Z,18.20
2018-12-17T15:51:24.423Z,19.97
2018-12-17T15:54:28.797Z,23.13
2018-12-17T15:57:19.889Z,23.10
2018-12-17T15:59:54.749Z,19.73
2018-12-17T16:02:46.260Z,24.00
2018-12-17T16:05:37.536Z,22.03
2018-12-17T16:08:05.727Z,42.17
2018-12-17T16:10:58.704Z,29.97
2018-12-17T16:13:27.943Z,26.73
2018-12-17T16:16:02.098Z,20.00
2018-12-17T16:18:34.571Z,21.60
2018-12-17T16:21:03.848Z,18.07
2018-12-17T16:24:01.328Z,20.83
2018-12-17T16:26:46.033Z,22.70
2018-12-17T16:29:15.517Z,26.67
2018-12-17T16:31:45.418Z,29.03
2018-12-17T16:34:16.840Z,22.30
2018-12-17T16:36:47.171Z,22.70
2018-12-17T16:39:18.731Z,21.67
2018-12-17T16:41:47.312Z,24.73
2018-12-17T16:44:15.915Z,28.97
2018-12-17T16:46:46.490Z,28.37
2018-12-17T16:49:18.231Z,27.23
2018-12-17T16:51:46.968Z,21.87
2018-12-17T16:54:16.155Z,20.83
2018-12-17T16:56:46.376Z,22.57
2018-12-17T16:59:16.786Z,22.37
2018-12-17T17:01:47.767Z,32.33
2018-12-17T17:04:28.419Z,24.53
2018-12-17T17:06:57.147Z,25.53
2018-12-17T17:09:25.561Z,18.73
2018-12-17T17:11:54.277Z,20.72
2018-12-17T17:14:35.645Z,22.63
2018-12-17T17:17:12.953Z,26.63
2018-12-17T17:19:41.610Z,19.67
2018-12-17T17:22:10.061Z,22.20
2018-12-17T17:24:41.623Z,19.10
2018-12-17T17:27:09.869Z,23.13
2018-12-17T17:29:42.204Z,21.73
2018-12-17T17:32:12.016Z,19.73
2018-12-17T17:34:58.501Z,20.87
2018-12-17T17:37:26.834Z,20.13
2018-12-17T17:39:55.149Z,18.92
2018-12-17T17:42:23.421Z,27.03
2018-12-17T17:44:51.613Z,28.30
2018-12-17T17:47:19.899Z,23.87
2018-12-17T17:49:58.807Z,43.77
2018-12-17T17:52:26.991Z,20.33
2018-12-17T17:54:55.140Z,28.77
2018-12-17T17:57:23.616Z,18.00
2018-12-17T17:59:51.810Z,19.60
2018-12-17T18:02:20.006Z,17.37
2018-12-17T18:04:48.257Z,16.83
2018-12-17T18:07:17.431Z,17.70
2018-12-17T18:09:46.705Z,18.53
2018-12-17T18:12:14.963Z,16.00
2018-12-17T18:14:43.100Z,21.23
2018-12-17T18:17:11.288Z,15.67
2018-12-17T18:19:46.641Z,17.47
2018-12-17T18:22:14.946Z,17.27
2018-12-17T18:24:56.990Z,22.67
2018-12-17T18:27:40.923Z,27.50
2018-12-17T18:30:35.111Z,22.80
2018-12-17T18:33:21.144Z,24.97
2018-12-17T18:35:49.822Z,18.53
2018-12-17T18:38:18.524Z,19.60
2018-12-17T18:40:46.829Z,20.77
2018-12-17T18:43:15.075Z,21.83
2018-12-17T18:45:44.255Z,27.37
2018-12-17T18:48:12.413Z,22.87
2018-12-17T18:50:40.594Z,26.43
2018-12-17T18:53:08.798Z,25.90
2018-12-17T18:55:37.071Z,27.32
2018-12-17T18:58:05.350Z,24.03
2018-12-17T19:00:33.585Z,28.40
2018-12-17T19:03:01.808Z,36.80
2018-12-17T19:05:30.059Z,30.00
2018-12-17T19:07:59.280Z,29.00
2018-12-17T19:10:47.053Z,29.40
2018-12-17T19:13:17.655Z,34.30
2018-12-17T19:15:47.655Z,32.40
2018-12-17T19:18:26.918Z,26.97
2018-12-17T19:21:22.302Z,25.13
2018-12-17T19:23:50.466Z,25.00
2018-12-17T19:26:31.337Z,26.13
2018-12-17T19:28:59.667Z,28.30
2018-12-17T19:31:34.506Z,32.25
2018-12-17T19:34:02.259Z,29.33
2018-12-17T19:36:32.529Z,25.90
2018-12-17T19:39:21.945Z,28.83
2018-12-17T19:41:52.187Z,29.27
2018-12-17T19:44:21.458Z,32.10
2018-12-17T19:47:39.726Z,28.57
2018-12-17T19:50:31.338Z,32.73
2018-12-17T19:53:20.189Z,36.97
2018-12-17T20:02:22.359Z,27.93
2018-12-17T20:04:50.546Z,30.60
2018-12-17T20:11:02.421Z,32.53
2018-12-17T20:14:02.534Z,31.00
2018-12-17T20:16:32.896Z,42.17
2018-12-17T20:19:08.010Z,32.43
2018-12-17T20:21:39.302Z,28.33
2018-12-17T20:24:19.533Z,30.83
2018-12-17T20:26:56.879Z,28.23
2018-12-17T20:29:34.415Z,27.95
2018-12-17T20:32:03.612Z,26.03
2018-12-17T20:34:33.825Z,27.83
2018-12-17T20:37:05.146Z,31.17
2018-12-17T20:39:36.081Z,27.53
2018-12-17T20:42:12.185Z,26.45
2018-12-17T20:44:46.314Z,24.30
2018-12-17T20:47:16.487Z,26.23
2018-12-17T20:50:02.274Z,25.50
2018-12-17T20:52:32.063Z,24.83
2018-12-17T20:55:00.393Z,26.70
2018-12-17T20:57:42.022Z,31.13
2018-12-17T21:00:19.643Z,25.07
2018-12-17T21:03:00.439Z,31.93
2018-12-17T21:05:27.067Z,29.73
2018-12-17T21:07:56.279Z,27.20
2018-12-17T21:10:25.424Z,26.20
2018-12-17T21:13:01.907Z,26.10
2018-12-17T21:15:41.213Z,26.05
2018-12-17T21:18:11.552Z,23.67
2018-12-17T21:20:49.183Z,29.63
2018-12-17T21:23:17.524Z,30.83
2018-12-17T21:25:47.759Z,24.00
2018-12-17T21:28:17.035Z,26.10
2018-12-17T21:30:47.284Z,26.70
2018-12-17T21:33:16.887Z,28.80
2018-12-17T21:35:45.163Z,27.83
2018-12-17T21:38:14.361Z,26.37
2018-12-17T21:40:49.181Z,25.57
2018-12-17T21:43:19.672Z,25.87
2018-12-17T21:45:48.780Z,25.43
2018-12-17T21:48:18.123Z,28.47
2018-12-17T21:50:46.384Z,31.53
2018-12-17T21:53:14.707Z,30.07
2018-12-17T21:55:43.891Z,31.13
2018-12-17T21:58:15.616Z,34.00
2018-12-17T22:00:43.991Z,33.90
2018-12-17T22:03:13.505Z,34.97
2018-12-17T22:05:50.888Z,30.33
2018-12-17T22:08:30.705Z,37.63
2018-12-17T22:11:09.942Z,37.00
2018-12-17T22:13:42.022Z,43.70
2018-12-17T22:16:14.687Z,34.63
2018-12-17T22:18:54.132Z,34.77
2018-12-17T22:21:39.259Z,47.17
2018-12-17T22:24:15.784Z,57.40
2018-12-17T22:26:44.988Z,51.63
2018-12-17T22:29:13.151Z,58.53
2018-12-17T22:31:41.387Z,55.33
2018-12-17T22:34:11.624Z,47.13
2018-12-17T22:36:48.751Z,43.13
2018-12-17T22:39:19.057Z,31.83
2018-12-17T22:41:53.209Z,33.33
2018-12-17T22:44:21.414Z,32.77
2018-12-17T22:46:51.629Z,32.20
2018-12-17T22:49:21.902Z,29.10
2018-12-17T22:51:51.047Z,34.60
2018-12-17T22:54:22.640Z,35.00
2018-12-17T22:57:01.982Z,42.60
2018-12-17T22:59:30.286Z,33.73
2018-12-17T23:02:01.019Z,37.40
2018-12-17T23:04:29.256Z,49.90
2018-12-17T23:06:59.928Z,39.87
2018-12-17T23:09:27.162Z,34.60
2018-12-17T23:12:39.554Z,41.50
2018-12-17T23:15:44.008Z,54.77
2018-12-17T23:18:12.147Z,37.57
2018-12-17T23:20:42.358Z,43.90
2018-12-17T23:23:11.487Z,38.33
2018-12-17T23:25:39.782Z,38.40
2018-12-17T23:28:10.032Z,38.40
2018-12-17T23:30:38.311Z,37.83
2018-12-17T23:33:11.234Z,37.90
2018-12-17T23:35:40.419Z,39.23
2018-12-17T23:38:19.574Z,30.80
2018-12-17T23:40:48.342Z,29.77
2018-12-17T23:43:17.789Z,32.57
2018-12-17T23:45:50.490Z,35.07
2018-12-17T23:48:20.681Z,40.40
2018-12-17T23:50:50.553Z,35.40
2018-12-17T23:53:23.853Z,35.77
2018-12-17T23:55:56.100Z,31.20
2018-12-17T23:58:26.462Z,32.33
